sensor_id;sensor_type;location;lat;lon;timestamp;temperature;humidity
35325;DHT22;35135;47.510;19.036;2023-07-02T00:01:47;27.60;53.30
35325;DHT22;35135;47.510;19.036;2023-07-02T00:04:14;27.60;53.20
35325;DHT22;35135;47.510;19.036;2023-07-02T00:06:47;27.60;53.20
35325;DHT22;35135;47.510;19.036;2023-07-02T00:09:14;27.60;53.10
35325;DHT22;35135;47.510;19.036;2023-07-02T00:11:42;27.60;53.10
35325;DHT22;35135;47.510;19.036;2023-07-02T00:14:08;27.60;53.40
35325;DHT22;35135;47.510;19.036;2023-07-02T00:16:39;27.60;53.40
35325;DHT22;35135;47.510;19.036;2023-07-02T00:19:06;27.60;53.10
35325;DHT22;35135;47.510;19.036;2023-07-02T00:21:32;27.60;52.90
35325;DHT22;35135;47.510;19.036;2023-07-02T00:23:59;27.60;53.20
35325;DHT22;35135;47.510;19.036;2023-07-02T00:26:27;27.60;53.40
35325;DHT22;35135;47.510;19.036;2023-07-02T00:28:54;27.60;53.40
35325;DHT22;35135;47.510;19.036;2023-07-02T00:31:19;27.60;53.40
35325;DHT22;35135;47.510;19.036;2023-07-02T00:33:45;27.60;53.40
35325;DHT22;35135;47.510;19.036;2023-07-02T00:36:12;27.60;53.10
35325;DHT22;35135;47.510;19.036;2023-07-02T00:38:44;27.60;53.60
35325;DHT22;35135;47.510;19.036;2023-07-02T00:41:10;27.60;53.70
35325;DHT22;35135;47.510;19.036;2023-07-02T00:43:36;27.60;53.30
35325;DHT22;35135;47.510;19.036;2023-07-02T00:46:05;27.60;52.70
35325;DHT22;35135;47.510;19.036;2023-07-02T00:48:31;27.60;53.40
35325;DHT22;35135;47.510;19.036;2023-07-02T00:50:57;27.70;53.40
35325;DHT22;35135;47.510;19.036;2023-07-02T00:53:23;27.70;53.00
35325;DHT22;35135;47.510;19.036;2023-07-02T00:55:48;27.70;53.20
35325;DHT22;35135;47.510;19.036;2023-07-02T00:58:14;27.70;52.80
35325;DHT22;35135;47.510;19.036;2023-07-02T01:00:41;27.60;53.40
35325;DHT22;35135;47.510;19.036;2023-07-02T01:03:07;27.60;53.10
35325;DHT22;35135;47.510;19.036;2023-07-02T01:05:33;27.60;53.10
35325;DHT22;35135;47.510;19.036;2023-07-02T01:08:05;27.60;52.60
35325;DHT22;35135;47.510;19.036;2023-07-02T01:10:31;27.50;52.30
35325;DHT22;35135;47.510;19.036;2023-07-02T01:13:01;27.50;53.10
35325;DHT22;35135;47.510;19.036;2023-07-02T01:15:28;27.50;53.00
35325;DHT22;35135;47.510;19.036;2023-07-02T01:17:54;27.50;52.20
35325;DHT22;35135;47.510;19.036;2023-07-02T01:20:21;27.50;52.80
35325;DHT22;35135;47.510;19.036;2023-07-02T01:22:48;27.50;52.40
35325;DHT22;35135;47.510;19.036;2023-07-02T01:25:17;27.40;52.70
35325;DHT22;35135;47.510;19.036;2023-07-02T01:27:43;27.50;52.30
35325;DHT22;35135;47.510;19.036;2023-07-02T01:30:09;27.50;51.90
35325;DHT22;35135;47.510;19.036;2023-07-02T01:32:36;27.40;52.20
35325;DHT22;35135;47.510;19.036;2023-07-02T01:35:02;27.40;51.80
35325;DHT22;35135;47.510;19.036;2023-07-02T01:37:28;27.40;51.60
35325;DHT22;35135;47.510;19.036;2023-07-02T01:39:54;27.30;52.50
35325;DHT22;35135;47.510;19.036;2023-07-02T01:42:20;27.30;51.60
35325;DHT22;35135;47.510;19.036;2023-07-02T01:44:49;27.20;51.80
35325;DHT22;35135;47.510;19.036;2023-07-02T01:47:16;27.20;52.20
35325;DHT22;35135;47.510;19.036;2023-07-02T01:49:43;27.20;51.70
35325;DHT22;35135;47.510;19.036;2023-07-02T01:52:09;27.20;52.40
35325;DHT22;35135;47.510;19.036;2023-07-02T01:54:35;27.20;51.80
35325;DHT22;35135;47.510;19.036;2023-07-02T01:57:01;27.20;51.90
35325;DHT22;35135;47.510;19.036;2023-07-02T01:59:26;27.20;51.60
35325;DHT22;35135;47.510;19.036;2023-07-02T02:01:52;27.20;52.20
35325;DHT22;35135;47.510;19.036;2023-07-02T02:04:18;27.10;51.60
35325;DHT22;35135;47.510;19.036;2023-07-02T02:06:43;27.20;51.50
35325;DHT22;35135;47.510;19.036;2023-07-02T02:09:09;27.20;51.80
35325;DHT22;35135;47.510;19.036;2023-07-02T02:11:39;27.20;51.50
35325;DHT22;35135;47.510;19.036;2023-07-02T02:14:05;27.20;51.60
35325;DHT22;35135;47.510;19.036;2023-07-02T02:16:31;27.20;51.30
35325;DHT22;35135;47.510;19.036;2023-07-02T02:18:59;27.20;51.20
35325;DHT22;35135;47.510;19.036;2023-07-02T02:21:25;27.20;51.50
35325;DHT22;35135;47.510;19.036;2023-07-02T02:23:50;27.20;51.40
35325;DHT22;35135;47.510;19.036;2023-07-02T02:26:16;27.20;51.50
35325;DHT22;35135;47.510;19.036;2023-07-02T02:28:42;27.20;51.00
35325;DHT22;35135;47.510;19.036;2023-07-02T02:31:08;27.20;50.90
35325;DHT22;35135;47.510;19.036;2023-07-02T02:33:34;27.20;50.90
35325;DHT22;35135;47.510;19.036;2023-07-02T02:36:01;27.20;50.80
35325;DHT22;35135;47.510;19.036;2023-07-02T02:38:26;27.20;50.20
35325;DHT22;35135;47.510;19.036;2023-07-02T02:40:52;27.20;51.00
35325;DHT22;35135;47.510;19.036;2023-07-02T02:43:18;27.10;50.70
35325;DHT22;35135;47.510;19.036;2023-07-02T02:45:44;27.10;51.10
35325;DHT22;35135;47.510;19.036;2023-07-02T02:48:09;27.10;50.40
35325;DHT22;35135;47.510;19.036;2023-07-02T02:50:37;27.00;50.90
35325;DHT22;35135;47.510;19.036;2023-07-02T02:53:07;27.10;51.30
35325;DHT22;35135;47.510;19.036;2023-07-02T02:55:33;27.10;50.90
35325;DHT22;35135;47.510;19.036;2023-07-02T02:57:58;27.00;50.70
35325;DHT22;35135;47.510;19.036;2023-07-02T03:00:24;27.00;51.40
35325;DHT22;35135;47.510;19.036;2023-07-02T03:02:50;27.00;50.80
35325;DHT22;35135;47.510;19.036;2023-07-02T03:05:16;26.90;50.90
35325;DHT22;35135;47.510;19.036;2023-07-02T03:07:42;27.00;51.30
35325;DHT22;35135;47.510;19.036;2023-07-02T03:10:08;26.90;50.70
35325;DHT22;35135;47.510;19.036;2023-07-02T03:12:34;26.90;50.90
35325;DHT22;35135;47.510;19.036;2023-07-02T03:14:59;26.90;51.40
35325;DHT22;35135;47.510;19.036;2023-07-02T03:17:25;26.90;50.40
35325;DHT22;35135;47.510;19.036;2023-07-02T03:19:51;26.90;51.40
35325;DHT22;35135;47.510;19.036;2023-07-02T03:22:17;26.90;50.80
35325;DHT22;35135;47.510;19.036;2023-07-02T03:24:43;26.90;50.90
35325;DHT22;35135;47.510;19.036;2023-07-02T03:27:08;26.80;50.60
35325;DHT22;35135;47.510;19.036;2023-07-02T03:29:35;26.80;50.60
35325;DHT22;35135;47.510;19.036;2023-07-02T03:32:01;26.80;50.90
35325;DHT22;35135;47.510;19.036;2023-07-02T03:34:27;26.80;51.30
35325;DHT22;35135;47.510;19.036;2023-07-02T03:36:53;26.80;50.50
35325;DHT22;35135;47.510;19.036;2023-07-02T03:39:19;26.80;50.50
35325;DHT22;35135;47.510;19.036;2023-07-02T03:41:45;26.70;50.50
35325;DHT22;35135;47.510;19.036;2023-07-02T03:44:11;26.70;50.80
35325;DHT22;35135;47.510;19.036;2023-07-02T03:46:36;26.70;51.40
35325;DHT22;35135;47.510;19.036;2023-07-02T03:49:03;26.70;51.40
35325;DHT22;35135;47.510;19.036;2023-07-02T03:51:29;26.80;51.10
35325;DHT22;35135;47.510;19.036;2023-07-02T03:53:54;26.80;51.30
35325;DHT22;35135;47.510;19.036;2023-07-02T03:56:20;26.90;50.80
35325;DHT22;35135;47.510;19.036;2023-07-02T03:58:46;26.90;51.30
35325;DHT22;35135;47.510;19.036;2023-07-02T04:01:12;26.90;50.50
35325;DHT22;35135;47.510;19.036;2023-07-02T04:03:37;26.90;50.60
35325;DHT22;35135;47.510;19.036;2023-07-02T04:06:03;26.90;51.10
35325;DHT22;35135;47.510;19.036;2023-07-02T04:08:31;26.90;50.30
35325;DHT22;35135;47.510;19.036;2023-07-02T04:10:57;26.80;50.30
35325;DHT22;35135;47.510;19.036;2023-07-02T04:13:23;26.80;51.00
35325;DHT22;35135;47.510;19.036;2023-07-02T04:15:49;26.80;50.90
35325;DHT22;35135;47.510;19.036;2023-07-02T04:18:14;26.80;50.70
35325;DHT22;35135;47.510;19.036;2023-07-02T04:20:40;26.80;50.70
35325;DHT22;35135;47.510;19.036;2023-07-02T04:23:06;26.80;50.70
35325;DHT22;35135;47.510;19.036;2023-07-02T04:25:32;26.80;50.60
35325;DHT22;35135;47.510;19.036;2023-07-02T04:27:58;26.80;51.10
35325;DHT22;35135;47.510;19.036;2023-07-02T04:30:24;26.80;51.10
35325;DHT22;35135;47.510;19.036;2023-07-02T04:32:51;26.90;51.10
35325;DHT22;35135;47.510;19.036;2023-07-02T04:35:17;26.90;51.10
35325;DHT22;35135;47.510;19.036;2023-07-02T04:37:43;27.00;50.60
35325;DHT22;35135;47.510;19.036;2023-07-02T04:40:09;27.00;50.20
35325;DHT22;35135;47.510;19.036;2023-07-02T04:42:39;27.00;50.50
35325;DHT22;35135;47.510;19.036;2023-07-02T04:45:07;27.10;50.70
35325;DHT22;35135;47.510;19.036;2023-07-02T04:47:34;27.20;50.30
35325;DHT22;35135;47.510;19.036;2023-07-02T04:50:00;27.20;50.20
35325;DHT22;35135;47.510;19.036;2023-07-02T04:52:26;27.20;50.40
35325;DHT22;35135;47.510;19.036;2023-07-02T04:54:52;27.20;50.30
35325;DHT22;35135;47.510;19.036;2023-07-02T04:57:18;27.30;50.00
35325;DHT22;35135;47.510;19.036;2023-07-02T04:59:44;27.30;50.20
35325;DHT22;35135;47.510;19.036;2023-07-02T05:02:10;27.30;50.20
35325;DHT22;35135;47.510;19.036;2023-07-02T05:04:36;27.30;50.00
35325;DHT22;35135;47.510;19.036;2023-07-02T05:07:05;27.40;49.90
35325;DHT22;35135;47.510;19.036;2023-07-02T05:09:30;27.40;49.70
35325;DHT22;35135;47.510;19.036;2023-07-02T05:11:57;27.40;49.70
35325;DHT22;35135;47.510;19.036;2023-07-02T05:14:22;27.40;49.70
35325;DHT22;35135;47.510;19.036;2023-07-02T05:16:48;27.40;49.50
35325;DHT22;35135;47.510;19.036;2023-07-02T05:19:14;27.50;49.40
35325;DHT22;35135;47.510;19.036;2023-07-02T05:21:40;27.50;49.30
35325;DHT22;35135;47.510;19.036;2023-07-02T05:24:07;27.50;49.10
35325;DHT22;35135;47.510;19.036;2023-07-02T05:26:33;27.50;49.10
35325;DHT22;35135;47.510;19.036;2023-07-02T05:28:59;27.50;49.10
35325;DHT22;35135;47.510;19.036;2023-07-02T05:31:24;27.50;49.00
35325;DHT22;35135;47.510;19.036;2023-07-02T05:33:50;27.50;49.10
35325;DHT22;35135;47.510;19.036;2023-07-02T05:36:16;27.50;49.10
35325;DHT22;35135;47.510;19.036;2023-07-02T05:38:41;27.50;48.90
35325;DHT22;35135;47.510;19.036;2023-07-02T05:41:07;27.50;49.00
35325;DHT22;35135;47.510;19.036;2023-07-02T05:43:33;27.60;49.00
35325;DHT22;35135;47.510;19.036;2023-07-02T05:45:59;27.50;49.00
35325;DHT22;35135;47.510;19.036;2023-07-02T05:48:28;27.50;49.00
35325;DHT22;35135;47.510;19.036;2023-07-02T05:50:54;27.50;49.00
35325;DHT22;35135;47.510;19.036;2023-07-02T05:53:20;27.50;49.10
35325;DHT22;35135;47.510;19.036;2023-07-02T05:55:46;27.50;49.00
35325;DHT22;35135;47.510;19.036;2023-07-02T05:58:12;27.40;48.80
35325;DHT22;35135;47.510;19.036;2023-07-02T06:00:38;27.50;49.10
35325;DHT22;35135;47.510;19.036;2023-07-02T06:03:07;27.40;49.20
35325;DHT22;35135;47.510;19.036;2023-07-02T06:05:33;27.40;49.10
35325;DHT22;35135;47.510;19.036;2023-07-02T06:07:58;27.40;49.20
35325;DHT22;35135;47.510;19.036;2023-07-02T06:10:24;27.40;49.20
35325;DHT22;35135;47.510;19.036;2023-07-02T06:12:49;27.40;49.30
35325;DHT22;35135;47.510;19.036;2023-07-02T06:15:15;27.40;49.10
35325;DHT22;35135;47.510;19.036;2023-07-02T06:17:41;27.40;49.10
35325;DHT22;35135;47.510;19.036;2023-07-02T06:20:07;27.40;49.10
35325;DHT22;35135;47.510;19.036;2023-07-02T06:22:33;27.40;48.90
35325;DHT22;35135;47.510;19.036;2023-07-02T06:24:59;27.40;49.00
35325;DHT22;35135;47.510;19.036;2023-07-02T06:27:24;27.40;48.90
35325;DHT22;35135;47.510;19.036;2023-07-02T06:29:50;27.40;48.80
35325;DHT22;35135;47.510;19.036;2023-07-02T06:32:17;27.30;48.90
35325;DHT22;35135;47.510;19.036;2023-07-02T06:34:43;27.40;48.90
35325;DHT22;35135;47.510;19.036;2023-07-02T06:37:08;27.30;48.80
35325;DHT22;35135;47.510;19.036;2023-07-02T06:39:34;27.40;49.00
35325;DHT22;35135;47.510;19.036;2023-07-02T06:42:00;27.40;48.90
35325;DHT22;35135;47.510;19.036;2023-07-02T06:44:25;27.40;48.90
35325;DHT22;35135;47.510;19.036;2023-07-02T06:46:51;27.40;49.10
35325;DHT22;35135;47.510;19.036;2023-07-02T06:49:17;27.40;49.40
35325;DHT22;35135;47.510;19.036;2023-07-02T06:51:42;27.40;49.40
35325;DHT22;35135;47.510;19.036;2023-07-02T06:54:08;27.40;49.10
35325;DHT22;35135;47.510;19.036;2023-07-02T06:56:34;27.50;49.10
35325;DHT22;35135;47.510;19.036;2023-07-02T06:59:00;27.50;49.10
35325;DHT22;35135;47.510;19.036;2023-07-02T07:01:26;27.50;49.20
35325;DHT22;35135;47.510;19.036;2023-07-02T07:03:52;27.50;49.20
35325;DHT22;35135;47.510;19.036;2023-07-02T07:06:18;27.60;49.00
35325;DHT22;35135;47.510;19.036;2023-07-02T07:08:44;27.60;48.70
35325;DHT22;35135;47.510;19.036;2023-07-02T07:11:09;27.60;48.70
35325;DHT22;35135;47.510;19.036;2023-07-02T07:13:35;27.60;48.70
35325;DHT22;35135;47.510;19.036;2023-07-02T07:16:01;27.70;48.60
35325;DHT22;35135;47.510;19.036;2023-07-02T07:18:28;27.70;48.60
35325;DHT22;35135;47.510;19.036;2023-07-02T07:20:54;27.70;49.10
35325;DHT22;35135;47.510;19.036;2023-07-02T07:23:21;27.80;48.40
35325;DHT22;35135;47.510;19.036;2023-07-02T07:25:47;27.80;48.40
35325;DHT22;35135;47.510;19.036;2023-07-02T07:28:13;27.80;48.40
35325;DHT22;35135;47.510;19.036;2023-07-02T07:30:42;27.80;48.30
35325;DHT22;35135;47.510;19.036;2023-07-02T07:33:09;27.80;48.10
35325;DHT22;35135;47.510;19.036;2023-07-02T07:35:36;27.80;47.90
35325;DHT22;35135;47.510;19.036;2023-07-02T07:38:02;27.80;47.60
35325;DHT22;35135;47.510;19.036;2023-07-02T07:40:28;27.80;47.50
35325;DHT22;35135;47.510;19.036;2023-07-02T07:42:54;27.80;47.40
35325;DHT22;35135;47.510;19.036;2023-07-02T07:45:20;27.80;47.00
35325;DHT22;35135;47.510;19.036;2023-07-02T07:47:45;27.80;47.20
35325;DHT22;35135;47.510;19.036;2023-07-02T07:50:11;27.80;47.60
35325;DHT22;35135;47.510;19.036;2023-07-02T07:52:39;27.80;47.50
35325;DHT22;35135;47.510;19.036;2023-07-02T07:55:05;27.80;47.60
35325;DHT22;35135;47.510;19.036;2023-07-02T07:57:31;27.80;47.60
35325;DHT22;35135;47.510;19.036;2023-07-02T07:59:57;27.80;47.40
35325;DHT22;35135;47.510;19.036;2023-07-02T08:02:23;27.80;47.80
35325;DHT22;35135;47.510;19.036;2023-07-02T08:04:49;27.80;48.00
35325;DHT22;35135;47.510;19.036;2023-07-02T08:07:14;27.80;47.90
35325;DHT22;35135;47.510;19.036;2023-07-02T08:09:40;27.80;47.90
35325;DHT22;35135;47.510;19.036;2023-07-02T08:12:06;27.90;48.10
35325;DHT22;35135;47.510;19.036;2023-07-02T08:14:33;27.90;48.30
35325;DHT22;35135;47.510;19.036;2023-07-02T08:17:00;27.90;48.10
35325;DHT22;35135;47.510;19.036;2023-07-02T08:19:26;27.90;48.20
35325;DHT22;35135;47.510;19.036;2023-07-02T08:21:51;27.90;48.70
35325;DHT22;35135;47.510;19.036;2023-07-02T08:24:17;27.90;48.70
35325;DHT22;35135;47.510;19.036;2023-07-02T08:26:43;27.90;47.90
35325;DHT22;35135;47.510;19.036;2023-07-02T08:29:10;27.90;48.30
35325;DHT22;35135;47.510;19.036;2023-07-02T08:31:36;27.90;48.00
35325;DHT22;35135;47.510;19.036;2023-07-02T08:34:02;27.90;47.70
35325;DHT22;35135;47.510;19.036;2023-07-02T08:36:28;27.90;47.70
35325;DHT22;35135;47.510;19.036;2023-07-02T08:38:53;27.80;47.80
35325;DHT22;35135;47.510;19.036;2023-07-02T08:41:20;27.80;47.60
35325;DHT22;35135;47.510;19.036;2023-07-02T08:43:46;27.80;47.80
35325;DHT22;35135;47.510;19.036;2023-07-02T08:46:15;27.80;47.70
35325;DHT22;35135;47.510;19.036;2023-07-02T08:48:41;27.80;47.60
35325;DHT22;35135;47.510;19.036;2023-07-02T08:51:07;27.80;47.50
35325;DHT22;35135;47.510;19.036;2023-07-02T08:53:33;27.90;47.40
35325;DHT22;35135;47.510;19.036;2023-07-02T08:56:03;27.90;47.20
35325;DHT22;35135;47.510;19.036;2023-07-02T08:58:29;27.90;47.40
35325;DHT22;35135;47.510;19.036;2023-07-02T09:01:21;27.90;47.40
35325;DHT22;35135;47.510;19.036;2023-07-02T09:03:47;27.90;47.30
35325;DHT22;35135;47.510;19.036;2023-07-02T09:06:13;27.90;47.10
35325;DHT22;35135;47.510;19.036;2023-07-02T09:08:38;27.80;47.10
35325;DHT22;35135;47.510;19.036;2023-07-02T09:11:15;27.90;47.30
35325;DHT22;35135;47.510;19.036;2023-07-02T09:13:49;27.80;47.00
35325;DHT22;35135;47.510;19.036;2023-07-02T09:16:25;27.90;47.00
35325;DHT22;35135;47.510;19.036;2023-07-02T09:21:49;27.90;47.00
35325;DHT22;35135;47.510;19.036;2023-07-02T09:24:14;27.90;47.00
35325;DHT22;35135;47.510;19.036;2023-07-02T09:26:48;27.90;46.90
35325;DHT22;35135;47.510;19.036;2023-07-02T09:29:30;28.00;47.10
35325;DHT22;35135;47.510;19.036;2023-07-02T09:32:00;27.90;46.90
35325;DHT22;35135;47.510;19.036;2023-07-02T09:34:29;27.90;46.70
35325;DHT22;35135;47.510;19.036;2023-07-02T09:36:55;27.90;46.70
35325;DHT22;35135;47.510;19.036;2023-07-02T09:39:29;28.00;47.00
35325;DHT22;35135;47.510;19.036;2023-07-02T09:41:57;27.90;46.90
35325;DHT22;35135;47.510;19.036;2023-07-02T09:44:33;27.90;47.00
35325;DHT22;35135;47.510;19.036;2023-07-02T09:47:09;27.90;47.00
35325;DHT22;35135;47.510;19.036;2023-07-02T09:49:37;27.90;47.00
35325;DHT22;35135;47.510;19.036;2023-07-02T09:52:05;27.90;46.80
35325;DHT22;35135;47.510;19.036;2023-07-02T09:54:31;27.90;46.70
35325;DHT22;35135;47.510;19.036;2023-07-02T09:56:58;27.90;46.60
35325;DHT22;35135;47.510;19.036;2023-07-02T09:59:24;27.90;46.50
35325;DHT22;35135;47.510;19.036;2023-07-02T10:01:51;27.90;46.50
35325;DHT22;35135;47.510;19.036;2023-07-02T10:04:18;27.90;46.60
35325;DHT22;35135;47.510;19.036;2023-07-02T10:06:54;27.90;46.60
35325;DHT22;35135;47.510;19.036;2023-07-02T10:09:35;27.90;46.80
35325;DHT22;35135;47.510;19.036;2023-07-02T10:12:01;27.90;46.80
35325;DHT22;35135;47.510;19.036;2023-07-02T10:14:27;27.90;46.60
35325;DHT22;35135;47.510;19.036;2023-07-02T10:17:05;27.90;46.40
35325;DHT22;35135;47.510;19.036;2023-07-02T10:19:30;27.90;46.30
35325;DHT22;35135;47.510;19.036;2023-07-02T10:22:04;27.90;46.30
35325;DHT22;35135;47.510;19.036;2023-07-02T10:24:30;27.90;46.30
35325;DHT22;35135;47.510;19.036;2023-07-02T10:27:00;27.90;46.20
35325;DHT22;35135;47.510;19.036;2023-07-02T10:29:27;27.90;46.00
35325;DHT22;35135;47.510;19.036;2023-07-02T10:31:56;27.90;45.90
35325;DHT22;35135;47.510;19.036;2023-07-02T10:34:35;27.90;45.90
35325;DHT22;35135;47.510;19.036;2023-07-02T10:37:04;27.90;46.10
35325;DHT22;35135;47.510;19.036;2023-07-02T10:39:32;27.90;46.10
35325;DHT22;35135;47.510;19.036;2023-07-02T10:42:08;27.90;46.30
35325;DHT22;35135;47.510;19.036;2023-07-02T10:44:34;27.90;46.40
35325;DHT22;35135;47.510;19.036;2023-07-02T10:47:00;27.90;46.30
35325;DHT22;35135;47.510;19.036;2023-07-02T10:49:32;27.90;46.50
35325;DHT22;35135;47.510;19.036;2023-07-02T10:52:02;27.90;46.50
35325;DHT22;35135;47.510;19.036;2023-07-02T10:54:45;27.90;46.50
35325;DHT22;35135;47.510;19.036;2023-07-02T10:57:13;27.90;46.00
35325;DHT22;35135;47.510;19.036;2023-07-02T10:59:41;27.90;45.70
35325;DHT22;35135;47.510;19.036;2023-07-02T11:02:08;27.90;45.90
35325;DHT22;35135;47.510;19.036;2023-07-02T11:04:36;27.90;45.80
35325;DHT22;35135;47.510;19.036;2023-07-02T11:07:02;27.90;45.90
35325;DHT22;35135;47.510;19.036;2023-07-02T11:09:28;27.90;46.10
35325;DHT22;35135;47.510;19.036;2023-07-02T11:11:59;27.90;46.20
35325;DHT22;35135;47.510;19.036;2023-07-02T11:16:57;27.90;46.10
35325;DHT22;35135;47.510;19.036;2023-07-02T11:19:23;27.90;46.20
35325;DHT22;35135;47.510;19.036;2023-07-02T11:21:54;27.90;46.30
35325;DHT22;35135;47.510;19.036;2023-07-02T11:24:37;27.90;46.60
35325;DHT22;35135;47.510;19.036;2023-07-02T11:27:04;27.90;46.40
35325;DHT22;35135;47.510;19.036;2023-07-02T11:29:34;27.90;45.90
35325;DHT22;35135;47.510;19.036;2023-07-02T11:32:11;27.90;46.10
35325;DHT22;35135;47.510;19.036;2023-07-02T11:34:38;27.90;45.70
35325;DHT22;35135;47.510;19.036;2023-07-02T11:37:04;27.90;45.80
35325;DHT22;35135;47.510;19.036;2023-07-02T11:39:31;27.90;45.70
35325;DHT22;35135;47.510;19.036;2023-07-02T11:41:56;27.90;45.80
35325;DHT22;35135;47.510;19.036;2023-07-02T11:44:22;27.90;45.80
35325;DHT22;35135;47.510;19.036;2023-07-02T11:46:48;27.90;46.00
35325;DHT22;35135;47.510;19.036;2023-07-02T11:49:14;27.90;46.10
35325;DHT22;35135;47.510;19.036;2023-07-02T11:51:41;27.90;46.10
35325;DHT22;35135;47.510;19.036;2023-07-02T11:54:11;27.90;45.70
35325;DHT22;35135;47.510;19.036;2023-07-02T11:56:37;27.80;46.00
35325;DHT22;35135;47.510;19.036;2023-07-02T11:59:03;27.80;46.10
35325;DHT22;35135;47.510;19.036;2023-07-02T12:01:29;27.80;46.00
35325;DHT22;35135;47.510;19.036;2023-07-02T12:03:55;27.80;46.10
35325;DHT22;35135;47.510;19.036;2023-07-02T12:06:20;27.80;46.30
35325;DHT22;35135;47.510;19.036;2023-07-02T12:08:46;27.80;46.40
35325;DHT22;35135;47.510;19.036;2023-07-02T12:11:12;27.80;46.50
35325;DHT22;35135;47.510;19.036;2023-07-02T12:13:37;27.90;46.50
35325;DHT22;35135;47.510;19.036;2023-07-02T12:16:03;27.90;46.60
35325;DHT22;35135;47.510;19.036;2023-07-02T12:18:29;27.90;46.10
35325;DHT22;35135;47.510;19.036;2023-07-02T12:20:54;27.90;46.30
35325;DHT22;35135;47.510;19.036;2023-07-02T12:23:20;27.90;46.50
35325;DHT22;35135;47.510;19.036;2023-07-02T12:25:46;27.90;46.20
35325;DHT22;35135;47.510;19.036;2023-07-02T12:28:11;27.90;45.90
35325;DHT22;35135;47.510;19.036;2023-07-02T12:30:37;27.90;45.80
35325;DHT22;35135;47.510;19.036;2023-07-02T12:33:03;27.90;46.10
35325;DHT22;35135;47.510;19.036;2023-07-02T12:35:28;28.00;46.10
35325;DHT22;35135;47.510;19.036;2023-07-02T12:37:54;27.90;46.20
35325;DHT22;35135;47.510;19.036;2023-07-02T12:40:20;28.00;46.20
35325;DHT22;35135;47.510;19.036;2023-07-02T12:42:47;28.00;46.90
35325;DHT22;35135;47.510;19.036;2023-07-02T12:45:13;28.00;46.00
35325;DHT22;35135;47.510;19.036;2023-07-02T12:47:41;28.00;46.10
35325;DHT22;35135;47.510;19.036;2023-07-02T12:50:08;28.00;45.90
35325;DHT22;35135;47.510;19.036;2023-07-02T12:52:34;28.00;46.10
35325;DHT22;35135;47.510;19.036;2023-07-02T12:55:00;28.00;46.20
35325;DHT22;35135;47.510;19.036;2023-07-02T12:57:26;28.00;45.70
35325;DHT22;35135;47.510;19.036;2023-07-02T12:59:53;28.00;45.80
35325;DHT22;35135;47.510;19.036;2023-07-02T13:02:20;28.00;45.80
35325;DHT22;35135;47.510;19.036;2023-07-02T13:04:45;28.00;45.50
35325;DHT22;35135;47.510;19.036;2023-07-02T13:07:11;28.10;45.80
35325;DHT22;35135;47.510;19.036;2023-07-02T13:09:37;28.10;45.80
35325;DHT22;35135;47.510;19.036;2023-07-02T13:12:03;28.10;45.90
35325;DHT22;35135;47.510;19.036;2023-07-02T13:14:29;28.10;46.10
35325;DHT22;35135;47.510;19.036;2023-07-02T13:16:54;28.10;45.70
35325;DHT22;35135;47.510;19.036;2023-07-02T13:19:20;28.10;46.20
35325;DHT22;35135;47.510;19.036;2023-07-02T13:21:46;28.10;46.30
35325;DHT22;35135;47.510;19.036;2023-07-02T13:24:11;28.10;46.20
35325;DHT22;35135;47.510;19.036;2023-07-02T13:26:57;28.10;46.10
35325;DHT22;35135;47.510;19.036;2023-07-02T13:29:22;28.10;46.20
35325;DHT22;35135;47.510;19.036;2023-07-02T13:31:48;28.10;45.70
35325;DHT22;35135;47.510;19.036;2023-07-02T13:34:14;28.10;46.20
35325;DHT22;35135;47.510;19.036;2023-07-02T13:36:39;28.10;46.00
35325;DHT22;35135;47.510;19.036;2023-07-02T13:39:05;28.10;46.00
35325;DHT22;35135;47.510;19.036;2023-07-02T13:41:32;28.10;45.40
35325;DHT22;35135;47.510;19.036;2023-07-02T13:43:59;28.10;45.50
35325;DHT22;35135;47.510;19.036;2023-07-02T13:46:24;28.10;45.80
35325;DHT22;35135;47.510;19.036;2023-07-02T13:48:50;28.10;45.70
35325;DHT22;35135;47.510;19.036;2023-07-02T13:51:16;28.10;45.80
35325;DHT22;35135;47.510;19.036;2023-07-02T13:53:41;28.10;45.70
35325;DHT22;35135;47.510;19.036;2023-07-02T13:56:07;28.20;46.00
35325;DHT22;35135;47.510;19.036;2023-07-02T14:01:20;28.20;46.00
35325;DHT22;35135;47.510;19.036;2023-07-02T14:03:46;28.20;46.90
35325;DHT22;35135;47.510;19.036;2023-07-02T14:06:11;28.20;47.00
35325;DHT22;35135;47.510;19.036;2023-07-02T14:08:37;28.20;46.80
35325;DHT22;35135;47.510;19.036;2023-07-02T14:11:03;28.20;46.40
35325;DHT22;35135;47.510;19.036;2023-07-02T14:13:29;28.20;46.90
35325;DHT22;35135;47.510;19.036;2023-07-02T14:15:55;28.20;47.20
35325;DHT22;35135;47.510;19.036;2023-07-02T14:18:20;28.20;46.90
35325;DHT22;35135;47.510;19.036;2023-07-02T14:20:46;28.30;47.50
35325;DHT22;35135;47.510;19.036;2023-07-02T14:23:12;28.30;47.60
35325;DHT22;35135;47.510;19.036;2023-07-02T14:25:37;28.30;47.90
35325;DHT22;35135;47.510;19.036;2023-07-02T14:28:03;28.30;47.40
35325;DHT22;35135;47.510;19.036;2023-07-02T14:30:29;28.30;47.60
35325;DHT22;35135;47.510;19.036;2023-07-02T14:32:55;28.30;47.60
35325;DHT22;35135;47.510;19.036;2023-07-02T14:35:20;28.30;47.70
35325;DHT22;35135;47.510;19.036;2023-07-02T14:37:51;28.30;47.30
35325;DHT22;35135;47.510;19.036;2023-07-02T14:40:17;28.30;47.00
35325;DHT22;35135;47.510;19.036;2023-07-02T14:42:42;28.40;47.50
35325;DHT22;35135;47.510;19.036;2023-07-02T14:45:08;28.40;46.50
35325;DHT22;35135;47.510;19.036;2023-07-02T14:47:35;28.40;46.70
35325;DHT22;35135;47.510;19.036;2023-07-02T14:50:01;28.40;46.50
35325;DHT22;35135;47.510;19.036;2023-07-02T14:52:26;28.40;46.50
35325;DHT22;35135;47.510;19.036;2023-07-02T14:54:52;28.40;46.50
35325;DHT22;35135;47.510;19.036;2023-07-02T14:57:18;28.40;46.60
35325;DHT22;35135;47.510;19.036;2023-07-02T14:59:45;28.40;46.10
35325;DHT22;35135;47.510;19.036;2023-07-02T15:02:13;28.40;46.50
35325;DHT22;35135;47.510;19.036;2023-07-02T15:04:39;28.40;46.70
35325;DHT22;35135;47.510;19.036;2023-07-02T15:07:05;28.40;46.70
35325;DHT22;35135;47.510;19.036;2023-07-02T15:09:31;28.40;46.50
35325;DHT22;35135;47.510;19.036;2023-07-02T15:11:56;28.40;46.80
35325;DHT22;35135;47.510;19.036;2023-07-02T15:14:22;28.40;46.80
35325;DHT22;35135;47.510;19.036;2023-07-02T15:16:48;28.40;46.80
35325;DHT22;35135;47.510;19.036;2023-07-02T15:19:14;28.40;46.50
35325;DHT22;35135;47.510;19.036;2023-07-02T15:21:41;28.40;46.30